Time;durP1;ratioP1;P1;durP2;ratioP2;P2;SDS_P1;SDS_P2;PMS_P1;PMS_P2;Temp;Humidity;BMP_temperature;BMP_pressure;BME280_temperature;BME280_humidity;BME280_pressure;Samples;Min_cycle;Max_cycle;Signal;HPM_P1;HPM_P2
2021/02/08 00:00:02;;;;;;;2.95;2.55;;;;;;;1.42;100;93229.49;;;;
2021/02/08 00:01:07;;;;;;;3.05;2.5;;;;;;;1.49;100;93236.82;;;;
2021/02/08 00:02:07;;;;;;;3.05;2.5;;;;;;;1.49;100;93236.82;;;;
2021/02/08 00:03:08;;;;;;;3.05;2.5;;;;;;;1.49;100;93236.82;;;;
2021/02/08 00:04:08;;;;;;;3.05;2.5;;;;;;;1.49;100;93236.82;;;;
2021/02/08 00:05:09;;;;;;;3.05;2.5;;;;;;;1.49;100;93236.82;;;;
2021/02/08 00:06:11;;;;;;;3.05;2.5;;;;;;;1.49;100;93236.82;;;;
2021/02/08 00:07:11;;;;;;;3.05;2.5;;;;;;;1.49;100;93236.82;;;;
2021/02/08 00:08:13;;;;;;;3.05;2.5;;;;;;;1.49;100;93236.82;;;;
2021/02/08 00:09:14;;;;;;;3.05;2.5;;;;;;;1.49;100;93236.82;;;;
2021/02/08 00:10:14;;;;;;;3.05;2.5;;;;;;;1.49;100;93236.82;;;;
2021/02/08 00:11:15;;;;;;;3.05;2.5;;;;;;;1.49;100;93236.82;;;;
2021/02/08 00:12:15;;;;;;;2.4;2.15;;;;;;;1.51;100;93250.29;;;;
2021/02/08 00:13:16;;;;;;;2.4;2.15;;;;;;;1.51;100;93250.29;;;;
2021/02/08 00:14:17;;;;;;;2.4;2.15;;;;;;;1.51;100;93250.29;;;;
2021/02/08 00:15:18;;;;;;;2.4;2.15;;;;;;;1.51;100;93250.29;;;;
2021/02/08 00:16:18;;;;;;;2.4;2.15;;;;;;;1.51;100;93250.29;;;;
2021/02/08 00:17:19;;;;;;;2.4;2.15;;;;;;;1.51;100;93250.29;;;;
2021/02/08 00:18:20;;;;;;;2.4;2.15;;;;;;;1.51;100;93250.29;;;;
2021/02/08 00:19:20;;;;;;;2.4;2.15;;;;;;;1.51;100;93250.29;;;;
2021/02/08 00:20:21;;;;;;;2.4;2.15;;;;;;;1.51;100;93250.29;;;;
2021/02/08 00:21:21;;;;;;;2.4;2.15;;;;;;;1.51;100;93250.29;;;;
2021/02/08 00:22:23;;;;;;;2.25;2.05;;;;;;;1.53;100;93251.42;;;;
2021/02/08 00:23:24;;;;;;;2.25;2.05;;;;;;;1.53;100;93251.42;;;;
2021/02/08 00:24:24;;;;;;;2.25;2.05;;;;;;;1.53;100;93251.42;;;;
2021/02/08 00:25:25;;;;;;;2.25;2.05;;;;;;;1.53;100;93251.42;;;;
2021/02/08 00:26:25;;;;;;;2.25;2.05;;;;;;;1.53;100;93251.42;;;;
2021/02/08 00:27:26;;;;;;;2.25;2.05;;;;;;;1.53;100;93251.42;;;;
2021/02/08 00:28:26;;;;;;;2.25;2.05;;;;;;;1.53;100;93251.42;;;;
2021/02/08 00:29:27;;;;;;;2.25;2.05;;;;;;;1.53;100;93251.42;;;;
2021/02/08 00:30:27;;;;;;;2.25;2.05;;;;;;;1.53;100;93251.42;;;;
2021/02/08 00:31:28;;;;;;;2.25;2.05;;;;;;;1.53;100;93251.42;;;;
2021/02/08 00:32:28;;;;;;;2.25;2.05;;;;;;;1.53;100;93251.42;;;;
2021/02/08 00:33:29;;;;;;;2.05;1.85;;;;;;;1.55;100;93251.86;;;;
2021/02/08 00:34:29;;;;;;;2.05;1.85;;;;;;;1.55;100;93251.86;;;;
2021/02/08 00:35:30;;;;;;;2.05;1.85;;;;;;;1.55;100;93251.86;;;;
2021/02/08 00:36:30;;;;;;;2.05;1.85;;;;;;;1.55;100;93251.86;;;;
2021/02/08 00:37:31;;;;;;;2.05;1.85;;;;;;;1.55;100;93251.86;;;;
2021/02/08 00:38:31;;;;;;;2.05;1.85;;;;;;;1.55;100;93251.86;;;;
2021/02/08 00:39:32;;;;;;;2.05;1.85;;;;;;;1.55;100;93251.86;;;;
2021/02/08 00:40:33;;;;;;;2.05;1.85;;;;;;;1.55;100;93251.86;;;;
2021/02/08 00:41:33;;;;;;;2.05;1.85;;;;;;;1.55;100;93251.86;;;;
2021/02/08 00:42:33;;;;;;;2.05;1.85;;;;;;;1.55;100;93251.86;;;;
2021/02/08 00:43:34;;;;;;;2.3;1.6;;;;;;;1.5;100;93251.34;;;;
2021/02/08 00:44:34;;;;;;;2.3;1.6;;;;;;;1.5;100;93251.34;;;;
2021/02/08 00:45:35;;;;;;;2.3;1.6;;;;;;;1.5;100;93251.34;;;;
2021/02/08 00:46:35;;;;;;;2.3;1.6;;;;;;;1.5;100;93251.34;;;;
2021/02/08 00:47:36;;;;;;;2.3;1.6;;;;;;;1.5;100;93251.34;;;;
2021/02/08 00:48:36;;;;;;;2.3;1.6;;;;;;;1.5;100;93251.34;;;;
2021/02/08 00:49:37;;;;;;;2.3;1.6;;;;;;;1.5;100;93251.34;;;;
2021/02/08 00:50:37;;;;;;;2.3;1.6;;;;;;;1.5;100;93251.34;;;;
2021/02/08 00:51:38;;;;;;;2.3;1.6;;;;;;;1.5;100;93251.34;;;;
2021/02/08 00:52:38;;;;;;;2.3;1.6;;;;;;;1.5;100;93251.34;;;;
2021/02/08 00:53:39;;;;;;;2.3;1.6;;;;;;;1.5;100;93251.34;;;;
2021/02/08 00:54:40;;;;;;;1.6;1.5;;;;;;;1.46;100;93243.53;;;;
2021/02/08 00:55:40;;;;;;;1.6;1.5;;;;;;;1.46;100;93243.53;;;;
2021/02/08 00:56:41;;;;;;;1.6;1.5;;;;;;;1.46;100;93243.53;;;;
2021/02/08 00:57:41;;;;;;;1.6;1.5;;;;;;;1.46;100;93243.53;;;;
2021/02/08 00:58:42;;;;;;;1.6;1.5;;;;;;;1.46;100;93243.53;;;;
2021/02/08 00:59:42;;;;;;;1.6;1.5;;;;;;;1.46;100;93243.53;;;;
2021/02/08 01:00:43;;;;;;;1.6;1.5;;;;;;;1.46;100;93243.53;;;;
2021/02/08 01:01:47;;;;;;;1.6;1.5;;;;;;;1.46;100;93243.53;;;;
2021/02/08 01:02:48;;;;;;;1.6;1.5;;;;;;;1.46;100;93243.53;;;;
2021/02/08 01:03:50;;;;;;;1.6;1.5;;;;;;;1.46;100;93243.53;;;;
2021/02/08 01:04:51;;;;;;;1.6;1.5;;;;;;;1.46;100;93243.53;;;;
2021/02/08 01:05:51;;;;;;;2.25;1.85;;;;;;;1.43;100;93247.58;;;;
2021/02/08 01:06:51;;;;;;;2.25;1.85;;;;;;;1.43;100;93247.58;;;;
2021/02/08 01:07:52;;;;;;;2.25;1.85;;;;;;;1.43;100;93247.58;;;;
2021/02/08 01:08:52;;;;;;;2.25;1.85;;;;;;;1.43;100;93247.58;;;;
2021/02/08 01:09:53;;;;;;;2.25;1.85;;;;;;;1.43;100;93247.58;;;;
2021/02/08 01:10:53;;;;;;;2.25;1.85;;;;;;;1.43;100;93247.58;;;;
2021/02/08 01:11:54;;;;;;;2.25;1.85;;;;;;;1.43;100;93247.58;;;;
2021/02/08 01:12:54;;;;;;;2.25;1.85;;;;;;;1.43;100;93247.58;;;;
2021/02/08 01:13:56;;;;;;;2.25;1.85;;;;;;;1.43;100;93247.58;;;;
2021/02/08 01:14:57;;;;;;;2.25;1.85;;;;;;;1.43;100;93247.58;;;;
2021/02/08 01:15:57;;;;;;;2;1.8;;;;;;;1.42;100;93241.99;;;;
2021/02/08 01:16:58;;;;;;;2;1.8;;;;;;;1.42;100;93241.99;;;;
2021/02/08 01:17:58;;;;;;;2;1.8;;;;;;;1.42;100;93241.99;;;;
2021/02/08 01:18:59;;;;;;;2;1.8;;;;;;;1.42;100;93241.99;;;;
2021/02/08 01:19:59;;;;;;;2;1.8;;;;;;;1.42;100;93241.99;;;;
2021/02/08 01:21:00;;;;;;;2;1.8;;;;;;;1.42;100;93241.99;;;;
2021/02/08 01:22:01;;;;;;;2;1.8;;;;;;;1.42;100;93241.99;;;;
2021/02/08 01:23:01;;;;;;;2;1.8;;;;;;;1.42;100;93241.99;;;;
2021/02/08 01:24:03;;;;;;;2;1.8;;;;;;;1.42;100;93241.99;;;;
2021/02/08 01:25:05;;;;;;;2;1.8;;;;;;;1.42;100;93241.99;;;;
2021/02/08 01:26:07;;;;;;;2;1.8;;;;;;;1.42;100;93241.99;;;;
2021/02/08 01:27:07;;;;;;;2.35;2.05;;;;;;;1.47;100;93244.25;;;;
2021/02/08 01:28:07;;;;;;;2.35;2.05;;;;;;;1.47;100;93244.25;;;;
2021/02/08 01:29:08;;;;;;;2.35;2.05;;;;;;;1.47;100;93244.25;;;;
2021/02/08 01:30:09;;;;;;;2.35;2.05;;;;;;;1.47;100;93244.25;;;;
2021/02/08 01:31:12;;;;;;;2.35;2.05;;;;;;;1.47;100;93244.25;;;;
2021/02/08 01:32:13;;;;;;;2.35;2.05;;;;;;;1.47;100;93244.25;;;;
2021/02/08 01:33:13;;;;;;;2.35;2.05;;;;;;;1.47;100;93244.25;;;;
2021/02/08 01:34:14;;;;;;;2.35;2.05;;;;;;;1.47;100;93244.25;;;;
2021/02/08 01:35:14;;;;;;;2.35;2.05;;;;;;;1.47;100;93244.25;;;;
2021/02/08 01:36:15;;;;;;;2.35;2.05;;;;;;;1.47;100;93244.25;;;;
2021/02/08 01:37:15;;;;;;;3.9;2.25;;;;;;;1.51;100;93240.06;;;;
2021/02/08 01:38:16;;;;;;;3.9;2.25;;;;;;;1.51;100;93240.06;;;;
2021/02/08 01:39:17;;;;;;;3.9;2.25;;;;;;;1.51;100;93240.06;;;;
2021/02/08 01:40:17;;;;;;;3.9;2.25;;;;;;;1.51;100;93240.06;;;;
2021/02/08 01:41:18;;;;;;;3.9;2.25;;;;;;;1.51;100;93240.06;;;;
2021/02/08 01:42:18;;;;;;;3.9;2.25;;;;;;;1.51;100;93240.06;;;;
2021/02/08 01:43:19;;;;;;;3.9;2.25;;;;;;;1.51;100;93240.06;;;;
2021/02/08 01:44:20;;;;;;;3.9;2.25;;;;;;;1.51;100;93240.06;;;;
2021/02/08 01:45:20;;;;;;;3.9;2.25;;;;;;;1.51;100;93240.06;;;;
2021/02/08 01:46:21;;;;;;;3.9;2.25;;;;;;;1.51;100;93240.06;;;;
2021/02/08 01:47:21;;;;;;;3.9;2.25;;;;;;;1.51;100;93240.06;;;;
2021/02/08 01:48:22;;;;;;;3;2.5;;;;;;;1.52;100;93240.88;;;;
2021/02/08 01:49:22;;;;;;;3;2.5;;;;;;;1.52;100;93240.88;;;;
2021/02/08 01:50:23;;;;;;;3;2.5;;;;;;;1.52;100;93240.88;;;;
2021/02/08 01:51:23;;;;;;;3;2.5;;;;;;;1.52;100;93240.88;;;;
2021/02/08 01:52:24;;;;;;;3;2.5;;;;;;;1.52;100;93240.88;;;;
2021/02/08 01:53:27;;;;;;;3;2.5;;;;;;;1.52;100;93240.88;;;;
2021/02/08 01:54:27;;;;;;;3;2.5;;;;;;;1.52;100;93240.88;;;;
2021/02/08 01:55:28;;;;;;;3;2.5;;;;;;;1.52;100;93240.88;;;;
2021/02/08 01:56:29;;;;;;;3;2.5;;;;;;;1.52;100;93240.88;;;;
2021/02/08 01:57:30;;;;;;;3;2.5;;;;;;;1.52;100;93240.88;;;;
2021/02/08 01:58:31;;;;;;;3;2.4;;;;;;;1.52;100;93231.16;;;;
2021/02/08 01:59:32;;;;;;;3;2.4;;;;;;;1.52;100;93231.16;;;;
2021/02/08 02:00:33;;;;;;;3;2.4;;;;;;;1.52;100;93231.16;;;;
2021/02/08 02:01:34;;;;;;;3;2.4;;;;;;;1.52;100;93231.16;;;;
2021/02/08 02:02:35;;;;;;;3;2.4;;;;;;;1.52;100;93231.16;;;;
2021/02/08 02:03:36;;;;;;;3;2.4;;;;;;;1.52;100;93231.16;;;;
2021/02/08 02:04:36;;;;;;;3;2.4;;;;;;;1.52;100;93231.16;;;;
2021/02/08 02:05:37;;;;;;;3;2.4;;;;;;;1.52;100;93231.16;;;;
2021/02/08 02:06:38;;;;;;;3;2.4;;;;;;;1.52;100;93231.16;;;;
2021/02/08 02:07:44;;;;;;;3;2.4;;;;;;;1.52;100;93231.16;;;;
2021/02/08 02:08:53;;;;;;;3;2.4;;;;;;;1.52;100;93231.16;;;;
2021/02/08 02:10:01;;;;;;;4.100001;2.95;;;;;;;1.53;100;93234;;;;
2021/02/08 02:11:07;;;;;;;4.100001;2.95;;;;;;;1.53;100;93234;;;;
2021/02/08 02:12:12;;;;;;;4.100001;2.95;;;;;;;1.53;100;93234;;;;
2021/02/08 02:13:22;;;;;;;4.100001;2.95;;;;;;;1.53;100;93234;;;;
2021/02/08 02:14:29;;;;;;;4.100001;2.95;;;;;;;1.53;100;93234;;;;
2021/02/08 02:15:38;;;;;;;4.100001;2.95;;;;;;;1.53;100;93234;;;;
2021/02/08 02:16:53;;;;;;;4.100001;2.95;;;;;;;1.53;100;93234;;;;
2021/02/08 02:17:58;;;;;;;4.100001;2.95;;;;;;;1.53;100;93234;;;;
2021/02/08 02:19:10;;;;;;;4.100001;2.95;;;;;;;1.53;100;93234;;;;
2021/02/08 02:20:26;;;;;;;4.05;3.3;;;;;;;1.54;100;93221.11;;;;
2021/02/08 02:21:46;;;;;;;4.05;3.3;;;;;;;1.54;100;93221.11;;;;
2021/02/08 02:22:51;;;;;;;4.05;3.3;;;;;;;1.54;100;93221.11;;;;
2021/02/08 02:24:07;;;;;;;4.05;3.3;;;;;;;1.54;100;93221.11;;;;
2021/02/08 02:25:18;;;;;;;4.05;3.3;;;;;;;1.54;100;93221.11;;;;
2021/02/08 02:26:33;;;;;;;4.05;3.3;;;;;;;1.54;100;93221.11;;;;
2021/02/08 02:27:53;;;;;;;4.05;3.3;;;;;;;1.54;100;93221.11;;;;
2021/02/08 02:28:59;;;;;;;4.05;3.3;;;;;;;1.54;100;93221.11;;;;
2021/02/08 02:30:02;;;;;;;4.05;3.3;;;;;;;1.54;100;93221.11;;;;
2021/02/08 02:31:06;;;;;;;4.149999;2.95;;;;;;;1.53;100;93224.69;;;;
2021/02/08 02:32:13;;;;;;;4.149999;2.95;;;;;;;1.53;100;93224.69;;;;
2021/02/08 02:33:17;;;;;;;4.149999;2.95;;;;;;;1.53;100;93224.69;;;;
2021/02/08 02:34:20;;;;;;;4.149999;2.95;;;;;;;1.53;100;93224.69;;;;
2021/02/08 02:35:21;;;;;;;4.149999;2.95;;;;;;;1.53;100;93224.69;;;;
2021/02/08 02:36:28;;;;;;;4.149999;2.95;;;;;;;1.53;100;93224.69;;;;
2021/02/08 02:37:29;;;;;;;4.149999;2.95;;;;;;;1.53;100;93224.69;;;;
2021/02/08 02:38:32;;;;;;;4.149999;2.95;;;;;;;1.53;100;93224.69;;;;
2021/02/08 02:39:35;;;;;;;4.149999;2.95;;;;;;;1.53;100;93224.69;;;;
2021/02/08 02:40:36;;;;;;;4.149999;2.95;;;;;;;1.53;100;93224.69;;;;
2021/02/08 02:41:36;;;;;;;4.9;3.95;;;;;;;1.47;100;93220.42;;;;
2021/02/08 02:42:39;;;;;;;4.9;3.95;;;;;;;1.47;100;93220.42;;;;
2021/02/08 02:43:42;;;;;;;4.9;3.95;;;;;;;1.47;100;93220.42;;;;
2021/02/08 02:44:44;;;;;;;4.9;3.95;;;;;;;1.47;100;93220.42;;;;
2021/02/08 02:45:45;;;;;;;4.9;3.95;;;;;;;1.47;100;93220.42;;;;
2021/02/08 02:46:47;;;;;;;4.9;3.95;;;;;;;1.47;100;93220.42;;;;
2021/02/08 02:47:49;;;;;;;4.9;3.95;;;;;;;1.47;100;93220.42;;;;
2021/02/08 02:48:51;;;;;;;4.9;3.95;;;;;;;1.47;100;93220.42;;;;
2021/02/08 02:49:52;;;;;;;4.9;3.95;;;;;;;1.47;100;93220.42;;;;
2021/02/08 02:50:54;;;;;;;4.9;3.95;;;;;;;1.47;100;93220.42;;;;
2021/02/08 02:51:56;;;;;;;4.299999;3.8;;;;;;;1.42;100;93213.67;;;;
2021/02/08 02:52:56;;;;;;;4.299999;3.8;;;;;;;1.42;100;93213.67;;;;
2021/02/08 02:53:57;;;;;;;4.299999;3.8;;;;;;;1.42;100;93213.67;;;;
2021/02/08 02:54:57;;;;;;;4.299999;3.8;;;;;;;1.42;100;93213.67;;;;
2021/02/08 02:55:58;;;;;;;4.299999;3.8;;;;;;;1.42;100;93213.67;;;;
2021/02/08 02:56:58;;;;;;;4.299999;3.8;;;;;;;1.42;100;93213.67;;;;
2021/02/08 02:58:00;;;;;;;4.299999;3.8;;;;;;;1.42;100;93213.67;;;;
2021/02/08 02:59:01;;;;;;;4.299999;3.8;;;;;;;1.42;100;93213.67;;;;
2021/02/08 03:00:01;;;;;;;4.299999;3.8;;;;;;;1.42;100;93213.67;;;;
2021/02/08 03:01:06;;;;;;;4.299999;3.8;;;;;;;1.42;100;93213.67;;;;
2021/02/08 03:02:11;;;;;;;4.299999;3.8;;;;;;;1.42;100;93213.67;;;;
2021/02/08 03:03:19;;;;;;;6.100001;4.2;;;;;;;1.39;100;93194.58;;;;
2021/02/08 03:04:22;;;;;;;6.100001;4.2;;;;;;;1.39;100;93194.58;;;;
2021/02/08 03:05:28;;;;;;;6.100001;4.2;;;;;;;1.39;100;93194.58;;;;
2021/02/08 03:06:32;;;;;;;6.100001;4.2;;;;;;;1.39;100;93194.58;;;;
2021/02/08 03:07:33;;;;;;;6.100001;4.2;;;;;;;1.39;100;93194.58;;;;
2021/02/08 03:08:34;;;;;;;6.100001;4.2;;;;;;;1.39;100;93194.58;;;;
2021/02/08 03:09:39;;;;;;;6.100001;4.2;;;;;;;1.39;100;93194.58;;;;
2021/02/08 03:10:40;;;;;;;6.100001;4.2;;;;;;;1.39;100;93194.58;;;;
2021/02/08 03:11:42;;;;;;;6.100001;4.2;;;;;;;1.39;100;93194.58;;;;
2021/02/08 03:12:46;;;;;;;6.100001;4.2;;;;;;;1.39;100;93194.58;;;;
2021/02/08 03:13:49;;;;;;;6.05;4.35;;;;;;;1.38;100;93191.64;;;;
2021/02/08 03:14:50;;;;;;;6.05;4.35;;;;;;;1.38;100;93191.64;;;;
2021/02/08 03:15:53;;;;;;;6.05;4.35;;;;;;;1.38;100;93191.64;;;;
2021/02/08 03:16:56;;;;;;;6.05;4.35;;;;;;;1.38;100;93191.64;;;;
2021/02/08 03:17:57;;;;;;;6.05;4.35;;;;;;;1.38;100;93191.64;;;;
2021/02/08 03:18:58;;;;;;;6.05;4.35;;;;;;;1.38;100;93191.64;;;;
2021/02/08 03:20:00;;;;;;;6.05;4.35;;;;;;;1.38;100;93191.64;;;;
2021/02/08 03:21:01;;;;;;;6.05;4.35;;;;;;;1.38;100;93191.64;;;;
2021/02/08 03:22:03;;;;;;;6.05;4.35;;;;;;;1.38;100;93191.64;;;;
2021/02/08 03:23:04;;;;;;;6.05;4.35;;;;;;;1.38;100;93191.64;;;;
2021/02/08 03:24:04;;;;;;;5.95;4.75;;;;;;;1.42;100;93178.56;;;;
2021/02/08 03:25:06;;;;;;;5.95;4.75;;;;;;;1.42;100;93178.56;;;;
2021/02/08 03:26:08;;;;;;;5.95;4.75;;;;;;;1.42;100;93178.56;;;;
2021/02/08 03:27:10;;;;;;;5.95;4.75;;;;;;;1.42;100;93178.56;;;;
2021/02/08 03:28:11;;;;;;;5.95;4.75;;;;;;;1.42;100;93178.56;;;;
2021/02/08 03:29:12;;;;;;;5.95;4.75;;;;;;;1.42;100;93178.56;;;;
2021/02/08 03:30:12;;;;;;;5.95;4.75;;;;;;;1.42;100;93178.56;;;;
2021/02/08 03:31:14;;;;;;;5.95;4.75;;;;;;;1.42;100;93178.56;;;;
2021/02/08 03:32:16;;;;;;;5.95;4.75;;;;;;;1.42;100;93178.56;;;;
2021/02/08 03:33:16;;;;;;;5.95;4.75;;;;;;;1.42;100;93178.56;;;;
2021/02/08 03:34:17;;;;;;;6.099999;4.6;;;;;;;1.44;100;93185;;;;
2021/02/08 03:35:18;;;;;;;6.099999;4.6;;;;;;;1.44;100;93185;;;;
2021/02/08 03:36:18;;;;;;;6.099999;4.6;;;;;;;1.44;100;93185;;;;
2021/02/08 03:37:19;;;;;;;6.099999;4.6;;;;;;;1.44;100;93185;;;;
2021/02/08 03:38:19;;;;;;;6.099999;4.6;;;;;;;1.44;100;93185;;;;
2021/02/08 03:39:20;;;;;;;6.099999;4.6;;;;;;;1.44;100;93185;;;;
2021/02/08 03:40:20;;;;;;;6.099999;4.6;;;;;;;1.44;100;93185;;;;
2021/02/08 03:41:21;;;;;;;6.099999;4.6;;;;;;;1.44;100;93185;;;;
2021/02/08 03:42:22;;;;;;;6.099999;4.6;;;;;;;1.44;100;93185;;;;
2021/02/08 03:43:23;;;;;;;6.099999;4.6;;;;;;;1.44;100;93185;;;;
2021/02/08 03:44:23;;;;;;;6.099999;4.6;;;;;;;1.44;100;93185;;;;
2021/02/08 03:45:24;;;;;;;6.6;4.75;;;;;;;1.44;100;93180.88;;;;
2021/02/08 03:46:24;;;;;;;6.6;4.75;;;;;;;1.44;100;93180.88;;;;
2021/02/08 03:47:25;;;;;;;6.6;4.75;;;;;;;1.44;100;93180.88;;;;
2021/02/08 03:48:25;;;;;;;6.6;4.75;;;;;;;1.44;100;93180.88;;;;
2021/02/08 03:49:26;;;;;;;6.6;4.75;;;;;;;1.44;100;93180.88;;;;
2021/02/08 03:50:26;;;;;;;6.6;4.75;;;;;;;1.44;100;93180.88;;;;
2021/02/08 03:51:27;;;;;;;6.6;4.75;;;;;;;1.44;100;93180.88;;;;
2021/02/08 03:52:27;;;;;;;6.6;4.75;;;;;;;1.44;100;93180.88;;;;
2021/02/08 03:53:28;;;;;;;6.6;4.75;;;;;;;1.44;100;93180.88;;;;
2021/02/08 03:54:28;;;;;;;6.6;4.75;;;;;;;1.44;100;93180.88;;;;
2021/02/08 03:55:29;;;;;;;6.6;4.75;;;;;;;1.44;100;93180.88;;;;
2021/02/08 03:56:29;;;;;;;6.4;4.800001;;;;;;;1.39;100;93194.17;;;;
2021/02/08 03:57:30;;;;;;;6.4;4.800001;;;;;;;1.39;100;93194.17;;;;
2021/02/08 03:58:30;;;;;;;6.4;4.800001;;;;;;;1.39;100;93194.17;;;;
2021/02/08 03:59:31;;;;;;;6.4;4.800001;;;;;;;1.39;100;93194.17;;;;
2021/02/08 04:00:31;;;;;;;6.4;4.800001;;;;;;;1.39;100;93194.17;;;;
2021/02/08 04:01:32;;;;;;;6.4;4.800001;;;;;;;1.39;100;93194.17;;;;
2021/02/08 04:02:33;;;;;;;6.4;4.800001;;;;;;;1.39;100;93194.17;;;;
2021/02/08 04:03:33;;;;;;;6.4;4.800001;;;;;;;1.39;100;93194.17;;;;
2021/02/08 04:04:34;;;;;;;6.4;4.800001;;;;;;;1.39;100;93194.17;;;;
2021/02/08 04:05:34;;;;;;;6.4;4.800001;;;;;;;1.39;100;93194.17;;;;
2021/02/08 04:06:34;;;;;;;5.5;4.400001;;;;;;;1.34;100;93196.72;;;;
2021/02/08 04:07:35;;;;;;;5.5;4.400001;;;;;;;1.34;100;93196.72;;;;
2021/02/08 04:08:35;;;;;;;5.5;4.400001;;;;;;;1.34;100;93196.72;;;;
2021/02/08 04:09:36;;;;;;;5.5;4.400001;;;;;;;1.34;100;93196.72;;;;
2021/02/08 04:10:37;;;;;;;5.5;4.400001;;;;;;;1.34;100;93196.72;;;;
2021/02/08 04:11:37;;;;;;;5.5;4.400001;;;;;;;1.34;100;93196.72;;;;
2021/02/08 04:12:38;;;;;;;5.5;4.400001;;;;;;;1.34;100;93196.72;;;;
2021/02/08 04:13:39;;;;;;;5.5;4.400001;;;;;;;1.34;100;93196.72;;;;
2021/02/08 04:14:39;;;;;;;5.5;4.400001;;;;;;;1.34;100;93196.72;;;;
2021/02/08 04:15:39;;;;;;;5.5;4.400001;;;;;;;1.34;100;93196.72;;;;
2021/02/08 04:16:40;;;;;;;5.5;4.400001;;;;;;;1.34;100;93196.72;;;;
2021/02/08 04:17:42;;;;;;;5.950001;4.6;;;;;;;1.28;100;93198.85;;;;
2021/02/08 04:18:42;;;;;;;5.950001;4.6;;;;;;;1.28;100;93198.85;;;;
2021/02/08 04:19:42;;;;;;;5.950001;4.6;;;;;;;1.28;100;93198.85;;;;
2021/02/08 04:20:43;;;;;;;5.950001;4.6;;;;;;;1.28;100;93198.85;;;;
2021/02/08 04:21:44;;;;;;;5.950001;4.6;;;;;;;1.28;100;93198.85;;;;
2021/02/08 04:22:44;;;;;;;5.950001;4.6;;;;;;;1.28;100;93198.85;;;;
2021/02/08 04:23:44;;;;;;;5.950001;4.6;;;;;;;1.28;100;93198.85;;;;
2021/02/08 04:24:45;;;;;;;5.950001;4.6;;;;;;;1.28;100;93198.85;;;;
2021/02/08 04:25:45;;;;;;;5.950001;4.6;;;;;;;1.28;100;93198.85;;;;
2021/02/08 04:26:46;;;;;;;5.950001;4.6;;;;;;;1.28;100;93198.85;;;;
2021/02/08 04:27:46;;;;;;;6.05;4.55;;;;;;;1.2;100;93197.88;;;;
2021/02/08 04:28:47;;;;;;;6.05;4.55;;;;;;;1.2;100;93197.88;;;;
2021/02/08 04:29:47;;;;;;;6.05;4.55;;;;;;;1.2;100;93197.88;;;;
2021/02/08 04:30:48;;;;;;;6.05;4.55;;;;;;;1.2;100;93197.88;;;;
2021/02/08 04:31:49;;;;;;;6.05;4.55;;;;;;;1.2;100;93197.88;;;;
2021/02/08 04:32:49;;;;;;;6.05;4.55;;;;;;;1.2;100;93197.88;;;;
2021/02/08 04:33:50;;;;;;;6.05;4.55;;;;;;;1.2;100;93197.88;;;;
2021/02/08 04:34:50;;;;;;;6.05;4.55;;;;;;;1.2;100;93197.88;;;;
2021/02/08 04:35:51;;;;;;;6.05;4.55;;;;;;;1.2;100;93197.88;;;;
2021/02/08 04:36:51;;;;;;;6.05;4.55;;;;;;;1.2;100;93197.88;;;;
2021/02/08 04:37:52;;;;;;;6.05;4.55;;;;;;;1.2;100;93197.88;;;;
2021/02/08 04:38:52;;;;;;;6.4;4.199999;;;;;;;1.13;100;93186.15;;;;
2021/02/08 04:39:53;;;;;;;6.4;4.199999;;;;;;;1.13;100;93186.15;;;;
2021/02/08 04:40:53;;;;;;;6.4;4.199999;;;;;;;1.13;100;93186.15;;;;
2021/02/08 04:41:59;;;;;;;6.4;4.199999;;;;;;;1.13;100;93186.15;;;;
2021/02/08 04:43:00;;;;;;;6.4;4.199999;;;;;;;1.13;100;93186.15;;;;
2021/02/08 04:44:00;;;;;;;6.4;4.199999;;;;;;;1.13;100;93186.15;;;;
2021/02/08 04:45:01;;;;;;;6.4;4.199999;;;;;;;1.13;100;93186.15;;;;
2021/02/08 04:46:02;;;;;;;6.4;4.199999;;;;;;;1.13;100;93186.15;;;;
2021/02/08 04:47:03;;;;;;;6.4;4.199999;;;;;;;1.13;100;93186.15;;;;
2021/02/08 04:48:04;;;;;;;6.4;4.199999;;;;;;;1.13;100;93186.15;;;;
2021/02/08 04:49:06;;;;;;;6.05;4.450001;;;;;;;1.02;100;93191.33;;;;
2021/02/08 04:50:07;;;;;;;6.05;4.450001;;;;;;;1.02;100;93191.33;;;;
2021/02/08 04:51:09;;;;;;;6.05;4.450001;;;;;;;1.02;100;93191.33;;;;
2021/02/08 04:52:10;;;;;;;6.05;4.450001;;;;;;;1.02;100;93191.33;;;;
2021/02/08 04:53:11;;;;;;;6.05;4.450001;;;;;;;1.02;100;93191.33;;;;
2021/02/08 04:54:12;;;;;;;6.05;4.450001;;;;;;;1.02;100;93191.33;;;;
2021/02/08 04:55:13;;;;;;;6.05;4.450001;;;;;;;1.02;100;93191.33;;;;
2021/02/08 04:56:13;;;;;;;6.05;4.450001;;;;;;;1.02;100;93191.33;;;;
2021/02/08 04:57:14;;;;;;;6.05;4.450001;;;;;;;1.02;100;93191.33;;;;
2021/02/08 04:58:14;;;;;;;6.05;4.450001;;;;;;;1.02;100;93191.33;;;;
2021/02/08 04:59:15;;;;;;;6.05;4.450001;;;;;;;1.02;100;93191.33;;;;
2021/02/08 05:00:15;;;;;;;6.2;4.4;;;;;;;0.88;100;93193.89;;;;
2021/02/08 05:01:17;;;;;;;6.2;4.4;;;;;;;0.88;100;93193.89;;;;
2021/02/08 05:02:17;;;;;;;6.2;4.4;;;;;;;0.88;100;93193.89;;;;
2021/02/08 05:03:27;;;;;;;6.2;4.4;;;;;;;0.88;100;93193.89;;;;
2021/02/08 05:04:29;;;;;;;6.2;4.4;;;;;;;0.88;100;93193.89;;;;
2021/02/08 05:05:29;;;;;;;6.2;4.4;;;;;;;0.88;100;93193.89;;;;
2021/02/08 05:06:30;;;;;;;6.2;4.4;;;;;;;0.88;100;93193.89;;;;
2021/02/08 05:07:32;;;;;;;6.2;4.4;;;;;;;0.88;100;93193.89;;;;
2021/02/08 05:08:34;;;;;;;6.2;4.4;;;;;;;0.88;100;93193.89;;;;
2021/02/08 05:09:52;;;;;;;6.2;4.4;;;;;;;0.88;100;93193.89;;;;
2021/02/08 05:11:16;;;;;;;7.099999;5.400001;;;;;;;0.78;100;93190.08;;;;
2021/02/08 05:12:17;;;;;;;7.099999;5.400001;;;;;;;0.78;100;93190.08;;;;
2021/02/08 05:13:29;;;;;;;7.099999;5.400001;;;;;;;0.78;100;93190.08;;;;
2021/02/08 05:14:30;;;;;;;7.099999;5.400001;;;;;;;0.78;100;93190.08;;;;
2021/02/08 05:15:30;;;;;;;7.099999;5.400001;;;;;;;0.78;100;93190.08;;;;
2021/02/08 05:16:33;;;;;;;7.099999;5.400001;;;;;;;0.78;100;93190.08;;;;
2021/02/08 05:17:34;;;;;;;7.099999;5.400001;;;;;;;0.78;100;93190.08;;;;
2021/02/08 05:18:43;;;;;;;7.099999;5.400001;;;;;;;0.78;100;93190.08;;;;
2021/02/08 05:19:59;;;;;;;7.099999;5.400001;;;;;;;0.78;100;93190.08;;;;
2021/02/08 05:21:00;;;;;;;8.65;6.15;;;;;;;0.87;100;93189.62;;;;
2021/02/08 05:22:01;;;;;;;8.65;6.15;;;;;;;0.87;100;93189.62;;;;
2021/02/08 05:23:01;;;;;;;8.65;6.15;;;;;;;0.87;100;93189.62;;;;
2021/02/08 05:24:04;;;;;;;8.65;6.15;;;;;;;0.87;100;93189.62;;;;
2021/02/08 05:25:06;;;;;;;8.65;6.15;;;;;;;0.87;100;93189.62;;;;
2021/02/08 05:26:07;;;;;;;8.65;6.15;;;;;;;0.87;100;93189.62;;;;
2021/02/08 05:27:21;;;;;;;8.65;6.15;;;;;;;0.87;100;93189.62;;;;
2021/02/08 05:28:23;;;;;;;8.65;6.15;;;;;;;0.87;100;93189.62;;;;
2021/02/08 05:29:25;;;;;;;8.65;6.15;;;;;;;0.87;100;93189.62;;;;
2021/02/08 05:30:25;;;;;;;8.65;6.15;;;;;;;0.87;100;93189.62;;;;
2021/02/08 05:31:27;;;;;;;8.65;6.15;;;;;;;0.87;100;93189.62;;;;
2021/02/08 05:32:32;;;;;;;7.500001;5.649999;;;;;;;1;100;93186.36;;;;
2021/02/08 05:33:33;;;;;;;7.500001;5.649999;;;;;;;1;100;93186.36;;;;
2021/02/08 05:34:33;;;;;;;7.500001;5.649999;;;;;;;1;100;93186.36;;;;
2021/02/08 05:35:40;;;;;;;7.500001;5.649999;;;;;;;1;100;93186.36;;;;
2021/02/08 05:36:43;;;;;;;7.500001;5.649999;;;;;;;1;100;93186.36;;;;
2021/02/08 05:37:44;;;;;;;7.500001;5.649999;;;;;;;1;100;93186.36;;;;
2021/02/08 05:38:45;;;;;;;7.500001;5.649999;;;;;;;1;100;93186.36;;;;
2021/02/08 05:39:45;;;;;;;7.500001;5.649999;;;;;;;1;100;93186.36;;;;
2021/02/08 05:40:46;;;;;;;7.500001;5.649999;;;;;;;1;100;93186.36;;;;
2021/02/08 05:41:46;;;;;;;7.500001;5.649999;;;;;;;1;100;93186.36;;;;
2021/02/08 05:42:52;;;;;;;6.4;5.099999;;;;;;;1.07;100;93179.5;;;;
2021/02/08 05:43:55;;;;;;;6.4;5.099999;;;;;;;1.07;100;93179.5;;;;
2021/02/08 05:45:03;;;;;;;6.4;5.099999;;;;;;;1.07;100;93179.5;;;;
2021/02/08 05:46:06;;;;;;;6.4;5.099999;;;;;;;1.07;100;93179.5;;;;
2021/02/08 05:47:11;;;;;;;6.4;5.099999;;;;;;;1.07;100;93179.5;;;;
2021/02/08 05:48:13;;;;;;;6.4;5.099999;;;;;;;1.07;100;93179.5;;;;
2021/02/08 05:49:14;;;;;;;6.4;5.099999;;;;;;;1.07;100;93179.5;;;;
2021/02/08 05:50:15;;;;;;;6.4;5.099999;;;;;;;1.07;100;93179.5;;;;
2021/02/08 05:51:17;;;;;;;6.4;5.099999;;;;;;;1.07;100;93179.5;;;;
2021/02/08 05:52:17;;;;;;;6.4;5.099999;;;;;;;1.07;100;93179.5;;;;
2021/02/08 05:53:18;;;;;;;6.5;5.200001;;;;;;;1.14;100;93171.81;;;;
2021/02/08 05:54:30;;;;;;;6.5;5.200001;;;;;;;1.14;100;93171.81;;;;
2021/02/08 05:55:31;;;;;;;6.5;5.200001;;;;;;;1.14;100;93171.81;;;;
2021/02/08 05:56:33;;;;;;;6.5;5.200001;;;;;;;1.14;100;93171.81;;;;
2021/02/08 05:57:35;;;;;;;6.5;5.200001;;;;;;;1.14;100;93171.81;;;;
2021/02/08 05:58:36;;;;;;;6.5;5.200001;;;;;;;1.14;100;93171.81;;;;
2021/02/08 05:59:38;;;;;;;6.5;5.200001;;;;;;;1.14;100;93171.81;;;;
2021/02/08 06:00:39;;;;;;;6.5;5.200001;;;;;;;1.14;100;93171.81;;;;
2021/02/08 06:01:40;;;;;;;6.5;5.200001;;;;;;;1.14;100;93171.81;;;;
2021/02/08 06:02:40;;;;;;;6.5;5.200001;;;;;;;1.14;100;93171.81;;;;
2021/02/08 06:03:42;;;;;;;5.849999;4.65;;;;;;;1.21;100;93184.05;;;;
2021/02/08 06:04:46;;;;;;;5.849999;4.65;;;;;;;1.21;100;93184.05;;;;
2021/02/08 06:05:46;;;;;;;5.849999;4.65;;;;;;;1.21;100;93184.05;;;;
2021/02/08 06:06:47;;;;;;;5.849999;4.65;;;;;;;1.21;100;93184.05;;;;
2021/02/08 06:07:50;;;;;;;5.849999;4.65;;;;;;;1.21;100;93184.05;;;;
2021/02/08 06:08:52;;;;;;;5.849999;4.65;;;;;;;1.21;100;93184.05;;;;
2021/02/08 06:09:53;;;;;;;5.849999;4.65;;;;;;;1.21;100;93184.05;;;;
2021/02/08 06:10:53;;;;;;;5.849999;4.65;;;;;;;1.21;100;93184.05;;;;
2021/02/08 06:11:54;;;;;;;5.849999;4.65;;;;;;;1.21;100;93184.05;;;;
2021/02/08 06:12:56;;;;;;;5.849999;4.65;;;;;;;1.21;100;93184.05;;;;
2021/02/08 06:13:59;;;;;;;5.849999;4.65;;;;;;;1.21;100;93184.05;;;;
2021/02/08 06:15:00;;;;;;;6.7;4.400001;;;;;;;1.16;100;93183.94;;;;
2021/02/08 06:16:05;;;;;;;6.7;4.400001;;;;;;;1.16;100;93183.94;;;;
2021/02/08 06:17:10;;;;;;;6.7;4.400001;;;;;;;1.16;100;93183.94;;;;
2021/02/08 06:18:13;;;;;;;6.7;4.400001;;;;;;;1.16;100;93183.94;;;;
2021/02/08 06:19:17;;;;;;;6.7;4.400001;;;;;;;1.16;100;93183.94;;;;